createdAt,value
2018-04-16T00:00:44.802Z,0
2018-04-16T00:01:46.193Z,0
2018-04-16T00:02:47.586Z,0
2018-04-16T00:03:48.972Z,0
2018-04-16T00:04:50.361Z,0
2018-04-16T00:05:51.750Z,0
2018-04-16T00:06:53.137Z,0
2018-04-16T00:07:54.528Z,0
2018-04-16T00:08:55.918Z,0
2018-04-16T00:09:57.311Z,0
2018-04-16T00:10:58.696Z,0
2018-04-16T00:12:00.087Z,0
2018-04-16T00:13:01.476Z,0
2018-04-16T00:14:02.861Z,0
2018-04-16T00:15:04.251Z,0
2018-04-16T00:16:05.642Z,0
2018-04-16T00:17:07.031Z,0
2018-04-16T00:18:08.423Z,0
2018-04-16T00:19:09.816Z,0
2018-04-16T00:20:11.200Z,0
2018-04-16T00:21:12.603Z,0
2018-04-16T00:22:13.992Z,0
2018-04-16T00:23:15.381Z,0
2018-04-16T00:24:16.774Z,0
2018-04-16T00:25:18.162Z,0
2018-04-16T00:26:19.549Z,0
2018-04-16T00:27:20.938Z,0
2018-04-16T00:28:22.325Z,0
2018-04-16T00:29:23.718Z,0
2018-04-16T00:30:25.104Z,0
2018-04-16T00:31:26.502Z,0
2018-04-16T00:32:27.885Z,0
2018-04-16T00:33:29.272Z,0
2018-04-16T00:34:30.656Z,0
2018-04-16T00:35:32.048Z,0
2018-04-16T00:36:33.432Z,0
2018-04-16T00:37:34.821Z,0
2018-04-16T00:38:36.216Z,0
2018-04-16T00:39:37.601Z,0
2018-04-16T00:40:38.992Z,0
2018-04-16T00:41:40.383Z,0
2018-04-16T00:42:41.771Z,0
2018-04-16T00:43:43.160Z,0
2018-04-16T00:44:44.579Z,0
2018-04-16T00:45:45.972Z,0
2018-04-16T00:46:47.360Z,0
2018-04-16T00:47:48.749Z,0
2018-04-16T00:48:50.138Z,0
2018-04-16T00:49:51.536Z,0
2018-04-16T00:50:52.952Z,0
2018-04-16T00:51:54.345Z,0
2018-04-16T00:52:55.735Z,0
2018-04-16T00:53:57.127Z,0
2018-04-16T00:54:58.520Z,0
2018-04-16T00:55:59.908Z,0
2018-04-16T00:57:01.312Z,0
2018-04-16T00:58:02.691Z,0
2018-04-16T00:59:04.097Z,0
2018-04-16T01:00:05.497Z,0
2018-04-16T01:01:06.888Z,0
2018-04-16T01:02:08.276Z,0
2018-04-16T01:03:09.670Z,0
2018-04-16T01:04:11.060Z,0
2018-04-16T01:05:12.450Z,0
2018-04-16T01:06:13.843Z,0
2018-04-16T01:07:15.233Z,0
2018-04-16T01:08:16.623Z,0
2018-04-16T01:09:18.013Z,0
2018-04-16T01:10:19.398Z,0
2018-04-16T01:11:20.785Z,0
2018-04-16T01:12:22.173Z,0
2018-04-16T01:13:23.570Z,0
2018-04-16T01:14:24.959Z,0
2018-04-16T01:15:26.346Z,0
2018-04-16T01:16:27.734Z,0
2018-04-16T01:17:29.125Z,0
2018-04-16T01:18:30.511Z,0
2018-04-16T01:19:31.906Z,0
2018-04-16T01:20:33.297Z,0
2018-04-16T01:21:34.687Z,0
2018-04-16T01:22:36.106Z,0
2018-04-16T01:23:37.495Z,0
2018-04-16T01:24:38.884Z,0
2018-04-16T01:25:40.272Z,0
2018-04-16T01:26:41.663Z,0
2018-04-16T01:27:43.055Z,0
2018-04-16T01:28:44.448Z,0
2018-04-16T01:29:45.838Z,0
2018-04-16T01:30:47.222Z,0
2018-04-16T01:31:48.612Z,0
2018-04-16T01:32:50.002Z,0
2018-04-16T01:33:51.514Z,0
2018-04-16T01:34:52.920Z,0
2018-04-16T01:35:54.312Z,0
2018-04-16T01:36:55.698Z,0
2018-04-16T01:37:57.090Z,0
2018-04-16T01:38:58.475Z,0
2018-04-16T01:39:59.863Z,0
2018-04-16T01:41:01.253Z,0
2018-04-16T01:42:02.643Z,0
2018-04-16T01:43:04.036Z,0
2018-04-16T01:44:05.426Z,0
2018-04-16T01:45:06.813Z,0
2018-04-16T01:46:08.204Z,0
2018-04-16T01:47:09.592Z,0
2018-04-16T01:48:10.985Z,0
2018-04-16T01:49:12.375Z,0
2018-04-16T01:50:13.764Z,0
2018-04-16T01:51:15.158Z,0
2018-04-16T01:52:16.545Z,0
2018-04-16T01:53:17.933Z,0
2018-04-16T01:54:19.320Z,0
2018-04-16T01:55:20.712Z,0
2018-04-16T01:56:22.101Z,0
2018-04-16T01:57:23.489Z,0
2018-04-16T01:58:24.888Z,0
2018-04-16T01:59:26.275Z,0
2018-04-16T02:00:27.664Z,0
2018-04-16T02:01:29.052Z,0
2018-04-16T02:02:30.441Z,0
2018-04-16T02:03:31.831Z,0
2018-04-16T02:04:33.221Z,0
2018-04-16T02:05:34.614Z,0
2018-04-16T02:06:36.017Z,0
2018-04-16T02:07:37.391Z,0
2018-04-16T02:08:38.778Z,0
2018-04-16T02:09:40.167Z,0
2018-04-16T02:10:41.554Z,0
2018-04-16T02:11:42.942Z,0
2018-04-16T02:12:44.331Z,0
2018-04-16T02:13:45.718Z,0
2018-04-16T02:14:47.106Z,0
2018-04-16T02:15:48.495Z,0
2018-04-16T02:16:49.884Z,0
2018-04-16T02:17:51.273Z,0
2018-04-16T02:18:52.661Z,0
2018-04-16T02:19:54.050Z,0
2018-04-16T02:20:55.436Z,0
2018-04-16T02:21:56.826Z,0
2018-04-16T02:22:58.252Z,0
2018-04-16T02:23:59.655Z,0
2018-04-16T02:25:01.069Z,0
2018-04-16T02:26:02.462Z,0
2018-04-16T02:27:03.850Z,0
2018-04-16T02:28:05.236Z,0
2018-04-16T02:29:06.623Z,0
2018-04-16T02:30:08.014Z,0
2018-04-16T02:31:09.401Z,0
2018-04-16T02:32:10.789Z,0
2018-04-16T02:33:12.195Z,0
2018-04-16T02:34:13.561Z,0
2018-04-16T02:35:14.948Z,0
2018-04-16T02:36:16.340Z,0
2018-04-16T02:37:17.727Z,0
2018-04-16T02:38:19.115Z,0
2018-04-16T02:39:20.508Z,0
2018-04-16T02:40:21.900Z,0
2018-04-16T02:41:23.282Z,0
2018-04-16T02:42:24.668Z,0
2018-04-16T02:43:26.055Z,0
2018-04-16T02:44:27.449Z,0
2018-04-16T02:45:28.836Z,0
2018-04-16T02:46:30.223Z,0
2018-04-16T02:47:31.614Z,0
2018-04-16T02:48:33.002Z,0
2018-04-16T02:49:34.386Z,0
2018-04-16T02:50:35.785Z,0
2018-04-16T02:51:37.175Z,0
2018-04-16T02:52:38.560Z,0
2018-04-16T02:53:39.948Z,0
2018-04-16T02:54:41.338Z,0
2018-04-16T02:55:42.726Z,0
2018-04-16T02:56:44.110Z,0
2018-04-16T02:57:45.499Z,0
2018-04-16T02:58:46.889Z,0
2018-04-16T02:59:48.276Z,0
2018-04-16T03:00:49.668Z,0
2018-04-16T03:01:51.059Z,0
2018-04-16T03:02:52.443Z,0
2018-04-16T03:03:53.839Z,0
2018-04-16T03:04:55.224Z,0
2018-04-16T03:05:56.613Z,0
2018-04-16T03:06:58.000Z,0
2018-04-16T03:08:01.243Z,0
2018-04-16T03:09:02.622Z,0
2018-04-16T03:10:04.053Z,0
2018-04-16T03:11:05.509Z,0
2018-04-16T03:12:06.903Z,0
2018-04-16T03:13:08.292Z,0
2018-04-16T03:14:09.681Z,0
2018-04-16T03:15:11.073Z,0
2018-04-16T03:16:12.464Z,0
2018-04-16T03:17:13.850Z,0
2018-04-16T03:18:15.252Z,0
2018-04-16T03:19:16.642Z,0
2018-04-16T03:20:18.029Z,0
2018-04-16T03:21:19.417Z,0
2018-04-16T03:22:20.807Z,0
2018-04-16T03:23:22.200Z,0
2018-04-16T03:24:23.588Z,0
2018-04-16T03:25:24.974Z,0
2018-04-16T03:26:26.362Z,0
2018-04-16T03:27:27.748Z,0
2018-04-16T03:28:29.143Z,0
2018-04-16T03:29:30.532Z,0
2018-04-16T03:30:31.919Z,0
2018-04-16T03:31:33.308Z,0
2018-04-16T03:32:34.694Z,0
2018-04-16T03:33:36.080Z,0
2018-04-16T03:34:37.469Z,0
2018-04-16T03:35:38.858Z,0
2018-04-16T03:36:40.262Z,0
2018-04-16T03:37:41.641Z,0
2018-04-16T03:38:43.027Z,0
2018-04-16T03:39:44.421Z,0
2018-04-16T03:40:45.832Z,0
2018-04-16T03:41:47.218Z,0
2018-04-16T03:42:48.610Z,0
2018-04-16T03:43:50.005Z,0
2018-04-16T03:44:51.391Z,0
2018-04-16T03:45:52.780Z,0
2018-04-16T03:46:54.173Z,0
2018-04-16T03:47:55.560Z,0
2018-04-16T03:48:56.956Z,0
2018-04-16T03:49:58.348Z,0
2018-04-16T03:50:59.731Z,0
2018-04-16T03:52:01.125Z,0
2018-04-16T03:53:02.513Z,0
2018-04-16T03:54:03.901Z,0
2018-04-16T03:55:05.288Z,0
2018-04-16T03:56:06.685Z,0
2018-04-16T03:57:08.077Z,0
2018-04-16T03:58:09.470Z,0
2018-04-16T03:59:10.872Z,0
2018-04-16T04:00:12.329Z,0
2018-04-16T04:01:13.778Z,0
2018-04-16T04:02:15.134Z,0
2018-04-16T04:03:16.521Z,0
2018-04-16T04:04:17.908Z,0
2018-04-16T04:05:19.303Z,0
2018-04-16T04:06:20.687Z,0
2018-04-16T04:07:22.078Z,0
2018-04-16T04:08:23.462Z,0
2018-04-16T04:09:24.851Z,0
2018-04-16T04:10:26.241Z,0
2018-04-16T04:11:27.628Z,0
2018-04-16T04:12:29.017Z,0
2018-04-16T04:13:30.408Z,4
2018-04-16T04:14:31.796Z,4
2018-04-16T04:15:33.191Z,0
2018-04-16T04:16:34.579Z,0
2018-04-16T04:17:35.968Z,4
2018-04-16T04:18:37.360Z,4
2018-04-16T04:19:38.753Z,4
2018-04-16T04:20:40.141Z,4
2018-04-16T04:21:41.528Z,4
2018-04-16T04:22:42.916Z,8
2018-04-16T04:23:44.302Z,4
2018-04-16T04:24:45.693Z,8
2018-04-16T04:25:47.087Z,8
2018-04-16T04:26:48.476Z,12
2018-04-16T04:27:49.871Z,12
2018-04-16T04:28:51.256Z,12
2018-04-16T04:29:52.725Z,12
2018-04-16T04:30:54.117Z,16
2018-04-16T04:31:55.505Z,16
2018-04-16T04:32:56.922Z,20
2018-04-16T04:33:58.314Z,24
2018-04-16T04:34:59.713Z,24
2018-04-16T04:36:01.176Z,24
2018-04-16T04:37:02.565Z,28
2018-04-16T04:38:03.956Z,32
2018-04-16T04:39:05.358Z,36
2018-04-16T04:40:06.748Z,36
2018-04-16T04:41:08.137Z,40
2018-04-16T04:42:09.530Z,44
2018-04-16T04:43:10.920Z,52
2018-04-16T04:44:12.310Z,52
2018-04-16T04:45:13.705Z,56
2018-04-16T04:46:15.087Z,60
2018-04-16T04:47:16.485Z,60
2018-04-16T04:48:17.886Z,68
2018-04-16T04:49:19.383Z,72
2018-04-16T04:50:20.799Z,76
2018-04-16T04:51:22.193Z,84
2018-04-16T04:52:23.585Z,92
2018-04-16T04:53:24.975Z,100
2018-04-16T04:54:26.367Z,112
2018-04-16T04:55:27.761Z,116
2018-04-16T04:56:29.151Z,120
2018-04-16T04:57:30.544Z,132
2018-04-16T04:58:31.937Z,144
2018-04-16T04:59:33.328Z,156
2018-04-16T05:00:34.716Z,172
2018-04-16T05:01:36.117Z,188
2018-04-16T05:02:37.512Z,200
2018-04-16T05:03:38.909Z,212
2018-04-16T05:04:40.299Z,224
2018-04-16T05:05:41.689Z,236
2018-04-16T05:06:43.092Z,244
2018-04-16T05:07:44.480Z,256
2018-04-16T05:08:45.896Z,264
2018-04-16T05:09:47.287Z,284
2018-04-16T05:10:48.681Z,300
2018-04-16T05:11:50.071Z,316
2018-04-16T05:12:51.466Z,328
2018-04-16T05:13:52.906Z,340
2018-04-16T05:14:54.251Z,352
2018-04-16T05:15:55.648Z,368
2018-04-16T05:16:57.037Z,392
2018-04-16T05:17:58.432Z,428
2018-04-16T05:18:59.824Z,460
2018-04-16T05:20:01.219Z,484
2018-04-16T05:21:02.609Z,488
2018-04-16T05:22:04.000Z,508
2018-04-16T05:23:05.392Z,520
2018-04-16T05:24:06.786Z,524
2018-04-16T05:25:08.177Z,528
2018-04-16T05:26:09.568Z,532
2018-04-16T05:27:10.963Z,548
2018-04-16T05:28:14.071Z,540
2018-04-16T05:29:15.472Z,532
2018-04-16T05:30:16.863Z,544
2018-04-16T05:31:18.259Z,564
2018-04-16T05:32:19.655Z,600
2018-04-16T05:33:21.049Z,624
2018-04-16T05:34:22.443Z,632
2018-04-16T05:35:23.923Z,640
2018-04-16T05:36:25.362Z,660
2018-04-16T05:37:26.782Z,684
2018-04-16T05:38:28.176Z,724
2018-04-16T05:39:29.571Z,748
2018-04-16T05:40:30.961Z,768
2018-04-16T05:41:32.353Z,792
2018-04-16T05:42:33.802Z,800
2018-04-16T05:43:35.137Z,788
2018-04-16T05:44:36.533Z,784
2018-04-16T05:45:37.924Z,784
2018-04-16T05:46:39.318Z,792
2018-04-16T05:47:40.709Z,780
2018-04-16T05:48:42.100Z,772
2018-04-16T05:49:43.494Z,780
2018-04-16T05:50:44.885Z,796
2018-04-16T05:51:46.280Z,816
2018-04-16T05:52:47.672Z,844
2018-04-16T05:53:49.076Z,872
2018-04-16T05:54:50.461Z,896
2018-04-16T05:55:51.856Z,920
2018-04-16T05:56:53.250Z,952
2018-04-16T05:57:54.642Z,984
2018-04-16T05:58:56.046Z,1044
2018-04-16T05:59:57.441Z,1156
2018-04-16T06:00:58.837Z,1212
2018-04-16T06:02:00.232Z,1172
2018-04-16T06:03:01.624Z,1140
2018-04-16T06:04:03.021Z,1164
2018-04-16T06:05:04.424Z,1172
2018-04-16T06:06:05.811Z,1232
2018-04-16T06:07:07.205Z,1300
2018-04-16T06:08:08.606Z,1360
2018-04-16T06:09:09.993Z,1384
2018-04-16T06:10:11.394Z,1344
2018-04-16T06:11:12.797Z,1236
2018-04-16T06:12:14.193Z,1128
2018-04-16T06:13:15.588Z,1064
2018-04-16T06:14:16.985Z,1052
2018-04-16T06:15:18.394Z,1104
2018-04-16T06:16:19.791Z,1164
2018-04-16T06:17:21.185Z,1192
2018-04-16T06:18:22.580Z,1172
2018-04-16T06:19:23.976Z,1164
2018-04-16T06:20:25.372Z,1152
2018-04-16T06:21:26.766Z,1128
2018-04-16T06:22:28.164Z,1088
2018-04-16T06:23:29.557Z,1060
2018-04-16T06:24:30.967Z,1060
2018-04-16T06:25:32.418Z,1088
2018-04-16T06:26:33.825Z,1112
2018-04-16T06:27:35.217Z,1160
2018-04-16T06:28:36.611Z,1200
2018-04-16T06:29:38.008Z,1164
2018-04-16T06:30:39.401Z,1092
2018-04-16T06:31:40.792Z,1040
2018-04-16T06:32:42.189Z,1084
2018-04-16T06:33:43.587Z,1172
2018-04-16T06:34:44.980Z,1272
2018-04-16T06:35:46.375Z,1332
2018-04-16T06:36:47.779Z,1360
2018-04-16T06:37:49.164Z,1380
2018-04-16T06:38:50.565Z,1436
2018-04-16T06:39:51.962Z,1488
2018-04-16T06:40:53.356Z,1568
2018-04-16T06:41:54.750Z,1644
2018-04-16T06:42:56.146Z,1732
2018-04-16T06:43:57.543Z,1812
2018-04-16T06:44:58.937Z,1824
2018-04-16T06:46:00.332Z,1792
2018-04-16T06:47:01.745Z,1760
2018-04-16T06:48:03.125Z,1796
2018-04-16T06:49:04.517Z,1844
2018-04-16T06:50:05.912Z,1904
2018-04-16T06:51:07.310Z,1956
2018-04-16T06:52:08.706Z,1996
2018-04-16T06:53:10.153Z,2032
2018-04-16T06:54:11.498Z,2072
2018-04-16T06:55:12.892Z,2136
2018-04-16T06:56:14.291Z,2208
2018-04-16T06:57:15.686Z,2224
2018-04-16T06:58:17.094Z,2248
2018-04-16T06:59:18.500Z,2236
2018-04-16T07:00:19.890Z,2236
2018-04-16T07:01:21.305Z,2216
2018-04-16T07:02:22.706Z,2192
2018-04-16T07:03:24.087Z,2164
2018-04-16T07:04:25.488Z,2164
2018-04-16T07:05:26.887Z,2176
2018-04-16T07:06:28.280Z,2200
2018-04-16T07:07:29.673Z,2240
2018-04-16T07:08:31.131Z,2272
2018-04-16T07:09:32.519Z,2324
2018-04-16T07:10:33.919Z,2356
2018-04-16T07:11:35.330Z,2388
2018-04-16T07:12:36.728Z,2412
2018-04-16T07:13:38.140Z,2448
2018-04-16T07:14:39.554Z,2496
2018-04-16T07:15:40.958Z,2520
2018-04-16T07:16:42.352Z,2532
2018-04-16T07:17:43.748Z,2520
2018-04-16T07:18:45.143Z,2604
2018-04-16T07:19:46.547Z,2660
2018-04-16T07:20:47.942Z,2640
2018-04-16T07:21:49.343Z,2724
2018-04-16T07:22:50.733Z,2828
2018-04-16T07:23:52.134Z,2808
2018-04-16T07:24:53.534Z,2728
2018-04-16T07:25:54.933Z,2788
2018-04-16T07:26:56.359Z,2920
2018-04-16T07:27:57.751Z,2936
2018-04-16T07:28:59.146Z,2892
2018-04-16T07:30:00.544Z,2888
2018-04-16T07:31:01.942Z,2976
2018-04-16T07:32:03.338Z,3000
2018-04-16T07:33:04.733Z,3016
2018-04-16T07:34:06.133Z,2980
2018-04-16T07:35:07.524Z,2840
2018-04-16T07:36:08.920Z,2832
2018-04-16T07:37:10.317Z,2856
2018-04-16T07:38:11.716Z,2968
2018-04-16T07:39:13.124Z,3004
2018-04-16T07:40:14.524Z,3084
2018-04-16T07:41:15.920Z,3004
2018-04-16T07:42:17.332Z,2872
2018-04-16T07:43:18.731Z,2752
2018-04-16T07:44:20.128Z,2696
2018-04-16T07:45:21.528Z,2652
2018-04-16T07:46:22.928Z,2584
2018-04-16T07:47:24.333Z,2520
2018-04-16T07:48:25.729Z,2504
2018-04-16T07:49:27.123Z,2484
2018-04-16T07:50:28.522Z,2420
2018-04-16T07:51:29.921Z,2308
2018-04-16T07:52:31.317Z,2304
2018-04-16T07:53:32.714Z,2292
2018-04-16T07:54:34.110Z,2192
2018-04-16T07:55:35.505Z,2128
2018-04-16T07:56:36.899Z,2144
2018-04-16T07:57:38.296Z,2268
2018-04-16T07:58:39.692Z,2468
2018-04-16T07:59:41.088Z,2692
2018-04-16T08:00:42.482Z,2880
2018-04-16T08:01:43.882Z,2992
2018-04-16T08:02:45.377Z,3064
2018-04-16T08:03:46.769Z,3084
2018-04-16T08:04:48.164Z,3008
2018-04-16T08:05:49.560Z,3028
2018-04-16T08:06:50.959Z,3156
2018-04-16T08:07:52.361Z,3456
2018-04-16T08:08:53.751Z,3624
2018-04-16T08:09:55.152Z,3820
2018-04-16T08:10:56.558Z,3896
2018-04-16T08:11:57.954Z,3960
2018-04-16T08:12:59.355Z,3992
2018-04-16T08:14:00.780Z,4000
2018-04-16T08:15:02.175Z,3668
2018-04-16T08:16:03.599Z,4360
2018-04-16T08:17:04.980Z,4736
2018-04-16T08:18:06.375Z,5308
2018-04-16T08:19:07.771Z,5380
2018-04-16T08:20:09.166Z,5404
2018-04-16T08:21:10.565Z,5392
2018-04-16T08:22:12.001Z,4316
2018-04-16T08:23:13.361Z,5464
2018-04-16T08:24:14.758Z,3672
2018-04-16T08:25:16.174Z,3632
2018-04-16T08:26:17.573Z,4704
2018-04-16T08:27:18.966Z,3648
2018-04-16T08:28:20.363Z,4612
2018-04-16T08:29:21.759Z,4536
2018-04-16T08:30:23.160Z,4656
2018-04-16T08:31:24.560Z,4812
2018-04-16T08:32:25.967Z,4808
2018-04-16T08:33:27.360Z,4364
2018-04-16T08:34:28.761Z,5244
2018-04-16T08:35:30.157Z,4472
2018-04-16T08:36:31.557Z,4164
2018-04-16T08:37:32.956Z,3968
2018-04-16T08:38:34.357Z,5500
2018-04-16T08:39:35.752Z,4316
2018-04-16T08:40:37.148Z,5084
2018-04-16T08:41:38.549Z,5180
2018-04-16T08:42:39.946Z,6192
2018-04-16T08:43:41.349Z,4176
2018-04-16T08:44:42.748Z,3524
2018-04-16T08:45:44.150Z,3676
2018-04-16T08:46:45.548Z,5804
2018-04-16T08:47:46.938Z,6076
2018-04-16T08:48:48.343Z,6384
2018-04-16T08:49:49.750Z,6008
2018-04-16T08:50:51.206Z,6184
2018-04-16T08:51:52.605Z,4800
2018-04-16T08:52:54.008Z,6656
2018-04-16T08:53:55.403Z,7012
2018-04-16T08:54:56.805Z,7908
2018-04-16T08:55:58.238Z,4436
2018-04-16T08:56:59.634Z,5964
2018-04-16T08:58:01.035Z,43072
2018-04-16T08:59:02.438Z,38080
2018-04-16T09:00:03.852Z,43648
2018-04-16T09:01:05.251Z,40544
2018-04-16T09:02:06.647Z,34464
2018-04-16T09:03:08.046Z,28576
2018-04-16T09:04:09.446Z,3996
2018-04-16T09:05:10.846Z,4720
2018-04-16T09:06:12.244Z,7088
2018-04-16T09:07:13.642Z,7660
2018-04-16T09:08:15.041Z,7484
2018-04-16T09:09:16.440Z,5128
2018-04-16T09:10:17.838Z,4724
2018-04-16T09:11:19.280Z,5432
2018-04-16T09:12:20.666Z,7208
2018-04-16T09:13:22.063Z,6576
2018-04-16T09:14:23.464Z,7204
2018-04-16T09:15:24.866Z,8832
2018-04-16T09:16:26.257Z,8104
2018-04-16T09:17:27.655Z,8128
2018-04-16T09:18:29.053Z,9052
2018-04-16T09:19:30.454Z,9048
2018-04-16T09:20:31.851Z,7628
2018-04-16T09:21:33.250Z,6676
2018-04-16T09:22:34.649Z,6588
2018-04-16T09:23:36.055Z,7268
2018-04-16T09:24:37.453Z,8916
2018-04-16T09:25:38.851Z,8628
2018-04-16T09:26:40.250Z,7252
2018-04-16T09:27:41.649Z,8704
2018-04-16T09:28:43.050Z,8320
2018-04-16T09:29:44.452Z,9616
2018-04-16T09:30:45.852Z,9876
2018-04-16T09:31:47.240Z,9928
2018-04-16T09:32:48.641Z,10460
2018-04-16T09:33:50.045Z,8724
2018-04-16T09:34:51.447Z,9048
2018-04-16T09:35:52.851Z,9536
2018-04-16T09:36:54.248Z,10088
2018-04-16T09:37:55.781Z,8548
2018-04-16T09:38:57.181Z,8580
2018-04-16T09:39:58.581Z,4900
2018-04-16T09:40:59.983Z,4756
2018-04-16T09:42:01.387Z,4428
2018-04-16T09:43:02.788Z,4544
2018-04-16T09:44:04.183Z,4760
2018-04-16T09:45:05.580Z,7720
2018-04-16T09:46:06.980Z,4964
2018-04-16T09:47:08.384Z,4872
2018-04-16T09:48:09.787Z,4328
2018-04-16T09:49:11.190Z,3536
2018-04-16T09:50:12.591Z,3440
2018-04-16T09:51:13.990Z,3520
2018-04-16T09:52:15.420Z,3704
2018-04-16T09:53:16.828Z,3660
2018-04-16T09:54:18.240Z,3624
2018-04-16T09:55:19.630Z,3764
2018-04-16T09:56:21.030Z,4184
2018-04-16T09:57:22.432Z,4860
2018-04-16T09:58:23.832Z,5600
2018-04-16T09:59:25.224Z,6592
2018-04-16T10:00:26.619Z,5804
2018-04-16T10:01:28.018Z,5660
2018-04-16T10:02:29.418Z,4808
2018-04-16T10:03:30.816Z,4432
2018-04-16T10:04:32.218Z,4636
2018-04-16T10:05:33.618Z,5212
2018-04-16T10:06:35.015Z,5440
2018-04-16T10:07:36.412Z,6112
2018-04-16T10:08:37.810Z,6320
2018-04-16T10:09:39.214Z,12996
2018-04-16T10:10:40.613Z,9644
2018-04-16T10:11:42.019Z,12312
2018-04-16T10:12:43.420Z,12320
2018-04-16T10:13:44.818Z,12712
2018-04-16T10:14:46.220Z,12944
2018-04-16T10:15:47.622Z,13368
2018-04-16T10:16:49.023Z,13620
2018-04-16T10:17:50.423Z,13968
2018-04-16T10:18:51.824Z,14324
2018-04-16T10:19:53.227Z,14776
2018-04-16T10:20:54.623Z,15064
2018-04-16T10:21:56.023Z,15704
2018-04-16T10:22:57.432Z,15700
2018-04-16T10:23:58.832Z,16640
2018-04-16T10:25:00.456Z,11152
2018-04-16T10:26:01.878Z,18592
2018-04-16T10:27:03.353Z,17920
2018-04-16T10:28:04.793Z,19968
2018-04-16T10:29:06.205Z,20992
2018-04-16T10:30:07.616Z,22144
2018-04-16T10:31:09.022Z,22784
2018-04-16T10:32:10.434Z,23488
2018-04-16T10:33:11.838Z,23872
2018-04-16T10:34:13.285Z,24672
2018-04-16T10:35:14.707Z,25376
2018-04-16T10:36:16.101Z,25856
2018-04-16T10:37:17.501Z,26464
2018-04-16T10:38:18.905Z,25984
2018-04-16T10:39:20.314Z,27200
2018-04-16T10:40:21.719Z,26944
2018-04-16T10:41:23.118Z,27200
2018-04-16T10:42:24.521Z,26688
2018-04-16T10:43:25.924Z,26464
2018-04-16T10:44:27.331Z,26304
2018-04-16T10:45:28.732Z,25408
2018-04-16T10:46:30.132Z,25152
2018-04-16T10:47:31.542Z,26272
2018-04-16T10:48:32.938Z,17760
2018-04-16T10:49:34.341Z,26304
2018-04-16T10:50:35.743Z,14848
2018-04-16T10:51:37.145Z,23840
2018-04-16T10:52:38.547Z,25312
2018-04-16T10:53:39.952Z,6000
2018-04-16T10:54:41.353Z,5920
2018-04-16T10:55:42.755Z,20800
2018-04-16T10:56:44.155Z,7656
2018-04-16T10:57:45.554Z,5456
2018-04-16T10:58:46.961Z,23904
2018-04-16T10:59:48.368Z,23072
2018-04-16T11:00:49.778Z,3828
2018-04-16T11:01:51.175Z,3668
2018-04-16T11:02:52.572Z,4416
2018-04-16T11:03:53.976Z,6776
2018-04-16T11:04:55.381Z,23360
2018-04-16T11:05:56.786Z,23968
2018-04-16T11:06:58.191Z,23552
2018-04-16T11:07:59.593Z,23072
2018-04-16T11:09:00.993Z,23040
2018-04-16T11:10:02.398Z,17344
2018-04-16T11:11:03.904Z,22176
2018-04-16T11:12:05.322Z,22304
2018-04-16T11:13:06.727Z,22240
2018-04-16T11:14:08.134Z,21984
2018-04-16T11:15:09.533Z,4540
2018-04-16T11:16:10.935Z,9152
2018-04-16T11:17:12.335Z,22496
2018-04-16T11:18:13.736Z,21792
2018-04-16T11:19:15.142Z,21376
2018-04-16T11:20:16.544Z,21536
2018-04-16T11:21:17.943Z,21568
2018-04-16T11:22:19.351Z,21440
2018-04-16T11:23:20.755Z,21600
2018-04-16T11:24:22.157Z,22144
2018-04-16T11:25:23.560Z,21568
2018-04-16T11:26:25.007Z,20480
2018-04-16T11:27:26.369Z,22176
2018-04-16T11:28:27.773Z,21536
2018-04-16T11:29:29.174Z,20928
2018-04-16T11:30:30.577Z,20672
2018-04-16T11:31:31.980Z,20672
2018-04-16T11:32:33.384Z,20736
2018-04-16T11:33:34.789Z,20640
2018-04-16T11:34:36.192Z,20896
2018-04-16T11:35:37.592Z,20960
2018-04-16T11:36:38.995Z,21024
2018-04-16T11:37:40.403Z,21056
2018-04-16T11:38:41.805Z,20800
2018-04-16T11:39:43.207Z,21152
2018-04-16T11:40:44.619Z,20896
2018-04-16T11:41:46.018Z,21024
2018-04-16T11:42:47.413Z,21184
2018-04-16T11:43:48.816Z,21280
2018-04-16T11:44:50.223Z,21216
2018-04-16T11:45:51.628Z,21344
2018-04-16T11:46:53.030Z,21280
2018-04-16T11:47:54.428Z,21184
2018-04-16T11:48:55.840Z,21376
2018-04-16T11:49:57.244Z,21344
2018-04-16T11:50:58.650Z,21024
2018-04-16T11:52:00.055Z,21120
2018-04-16T11:53:01.454Z,21056
2018-04-16T11:54:02.855Z,21312
2018-04-16T11:55:04.258Z,21376
2018-04-16T11:56:05.662Z,21888
2018-04-16T11:57:07.099Z,21536
2018-04-16T11:58:08.501Z,21632
2018-04-16T11:59:09.908Z,21504
2018-04-16T12:00:11.303Z,21440
2018-04-16T12:01:12.708Z,21184
2018-04-16T12:02:14.116Z,21216
2018-04-16T12:03:15.511Z,21760
2018-04-16T12:04:16.948Z,20928
2018-04-16T12:05:18.333Z,21920
2018-04-16T12:06:19.740Z,21888
2018-04-16T12:07:21.146Z,21952
2018-04-16T12:08:22.546Z,18464
2018-04-16T12:09:23.992Z,21376
2018-04-16T12:10:25.454Z,20960
2018-04-16T12:11:26.804Z,21504
2018-04-16T12:12:28.209Z,20960
2018-04-16T12:13:29.619Z,20960
2018-04-16T12:14:31.026Z,21312
2018-04-16T12:15:32.430Z,21696
2018-04-16T12:16:33.871Z,20512
2018-04-16T12:17:35.237Z,20160
2018-04-16T12:18:36.639Z,18656
2018-04-16T12:19:38.049Z,17952
2018-04-16T12:20:39.455Z,16256
2018-04-16T12:21:40.862Z,17888
2018-04-16T12:22:42.258Z,21504
2018-04-16T12:23:43.660Z,22688
2018-04-16T12:24:45.065Z,23424
2018-04-16T12:25:46.468Z,22912
2018-04-16T12:26:47.875Z,23168
2018-04-16T12:27:49.295Z,23456
2018-04-16T12:28:50.678Z,10904
2018-04-16T12:29:52.082Z,7752
2018-04-16T12:30:53.487Z,18016
2018-04-16T12:31:54.892Z,19552
2018-04-16T12:32:56.300Z,15712
2018-04-16T12:33:57.708Z,18656
2018-04-16T12:34:59.118Z,21664
2018-04-16T12:36:00.519Z,22272
2018-04-16T12:37:01.944Z,22336
2018-04-16T12:38:03.352Z,21984
2018-04-16T12:39:04.805Z,21792
2018-04-16T12:40:06.180Z,21568
2018-04-16T12:41:07.584Z,19712
2018-04-16T12:42:09.037Z,21568
2018-04-16T12:43:10.440Z,18240
2018-04-16T12:44:11.932Z,19968
2018-04-16T12:45:13.353Z,18944
2018-04-16T12:46:14.756Z,20224
2018-04-16T12:47:16.162Z,20480
2018-04-16T12:48:17.569Z,18976
2018-04-16T12:49:18.990Z,17632
2018-04-16T12:50:20.393Z,16416
2018-04-16T12:51:21.802Z,13948
2018-04-16T12:52:23.206Z,13408
2018-04-16T12:53:24.609Z,9188
2018-04-16T12:54:26.014Z,6516
2018-04-16T12:55:27.418Z,8020
2018-04-16T12:56:28.824Z,7516
2018-04-16T12:57:30.226Z,6644
2018-04-16T12:58:31.633Z,5944
2018-04-16T12:59:33.035Z,5844
2018-04-16T13:00:34.437Z,5236
2018-04-16T13:01:35.858Z,5576
2018-04-16T13:02:37.253Z,5956
2018-04-16T13:03:38.655Z,6368
2018-04-16T13:04:40.058Z,6020
2018-04-16T13:05:41.464Z,5896
2018-04-16T13:06:42.875Z,5796
2018-04-16T13:07:44.279Z,6024
2018-04-16T13:08:45.677Z,6320
2018-04-16T13:09:47.080Z,6448
2018-04-16T13:10:48.486Z,6700
2018-04-16T13:11:49.893Z,6588
2018-04-16T13:12:51.288Z,6188
2018-04-16T13:13:52.694Z,6096
2018-04-16T13:14:54.094Z,6068
2018-04-16T13:15:55.492Z,6264
2018-04-16T13:16:56.893Z,6724
2018-04-16T13:17:58.301Z,7528
2018-04-16T13:18:59.702Z,7576
2018-04-16T13:20:01.103Z,9664
2018-04-16T13:21:02.510Z,9096
2018-04-16T13:22:03.906Z,8752
2018-04-16T13:23:05.313Z,8052
2018-04-16T13:24:06.713Z,7888
2018-04-16T13:25:08.114Z,9672
2018-04-16T13:26:09.515Z,12904
2018-04-16T13:27:10.915Z,15284
2018-04-16T13:28:12.316Z,18336
2018-04-16T13:29:13.717Z,8248
2018-04-16T13:30:15.117Z,8588
2018-04-16T13:31:16.598Z,16928
2018-04-16T13:32:18.008Z,13852
2018-04-16T13:33:19.408Z,6672
2018-04-16T13:34:20.808Z,8672
2018-04-16T13:35:22.206Z,6204
2018-04-16T13:36:23.617Z,17024
2018-04-16T13:37:25.013Z,16736
2018-04-16T13:38:26.414Z,13836
2018-04-16T13:39:27.819Z,16224
2018-04-16T13:40:29.220Z,17024
2018-04-16T13:41:30.620Z,17024
2018-04-16T13:42:32.023Z,17504
2018-04-16T13:43:33.428Z,17056
2018-04-16T13:44:34.830Z,15840
2018-04-16T13:45:36.233Z,15712
2018-04-16T13:46:37.640Z,16448
2018-04-16T13:47:39.043Z,16576
2018-04-16T13:48:40.441Z,16576
2018-04-16T13:49:41.844Z,16384
2018-04-16T13:50:43.248Z,15904
2018-04-16T13:51:44.656Z,16256
2018-04-16T13:52:46.062Z,16448
2018-04-16T13:53:47.466Z,16064
2018-04-16T13:54:48.866Z,15968
2018-04-16T13:55:50.267Z,14828
2018-04-16T13:56:51.674Z,14804
2018-04-16T13:57:53.078Z,13900
2018-04-16T13:58:54.486Z,14088
2018-04-16T13:59:55.889Z,13836
2018-04-16T14:00:57.300Z,13044
2018-04-16T14:01:58.691Z,10628